Arklow Spray — C6VK8 — position and weather

sailwx.info

Track history (hours):
 
Tides and Currents Weather Stations Pressure Air Temp Water Temp Dewpoint Dewpoint Depression Visibility Wind Speed Wind Dir Waves Ship Positions

Arklow Spray

Last reported at 2016-May-04 13:33 UTC. Time now 2016-May-04 13:39 UTC.
Position N 50°16' W 001°20'.

Length 90 m; draft 4.7 m.

Type: Cargo ship. MMSI: 309914000.

Date/timePositionNaut miles runAvg speedWind from/ knotsBaromVisibWave heightAir tempDewpointWater temp
2016-May-04 13:33N 50°16' W 001°20'1313.2
2016-May-04 12:33N 50°20' W 001°00'1313.2
2016-May-04 11:33N 50°23' W 000°40'1212.3
2016-May-04 10:33N 50°27' W 000°22'1111.1
2016-May-04 09:32N 50°30' W 000°05'1010.1
2016-May-04 08:34N 50°33' E 000°10'42 9.5
2016-May-04 04:05N 50°54' E 001°08'912.0
2016-May-04 03:20N 51°00' E 001°19'911.9
2016-May-04 02:33N 51°06' E 001°30'1010.2
2016-May-04 01:34N 51°14' E 001°41'9 9.3
2016-May-04 00:33N 51°23' E 001°44'9 8.8
2016-May-03 23:34N 51°31' E 001°46'9 9.2
2016-May-03 22:33N 51°41' E 001°45'10 9.7
2016-May-03 21:33N 51°50' E 001°45'1010.3
2016-May-03 20:34N 52°01' E 001°46'1111.0
2016-May-03 19:33N 52°12' E 001°48'1211.7
2016-May-03 18:33N 52°23' E 001°51'1212.3
2016-May-03 17:34N 52°35' E 001°54'1211.8
2016-May-03 16:34N 52°47' E 001°54'1212.4
2016-May-03 15:34N 52°55' E 001°38'1211.7
2016-May-03 14:33N 53°03' E 001°25'2110.7
2016-May-03 12:33N 53°22' E 001°08'60 9.8
2016-May-03 06:28N 54°13' E 000°14'9 9.7
2016-May-03 05:34N 54°20' E 000°06'10 9.9
2016-May-03 04:33N 54°28' W 000°04'1010.4
2016-May-03 03:34N 54°37' W 000°14'1110.6
2016-May-03 02:33N 54°47' W 000°20'1110.8
2016-May-03 01:33N 54°57' W 000°27'  
2016-Apr-26 06:29N 57°37' W 001°35'8 8.5
2016-Apr-26 05:33N 57°29' W 001°36'53 8.4
2016-Apr-25 23:14N 56°39' W 002°10'6 9.3
2016-Apr-25 22:34N 56°33' W 002°14'9 9.3
2016-Apr-25 21:33N 56°25' W 002°20'9 9.1
2016-Apr-25 20:33N 56°16' W 002°26'9 9.2
2016-Apr-25 19:33N 56°08' W 002°34'1211.6
2016-Apr-25 18:34N 56°05' W 002°54'1111.0
2016-Apr-25 17:34N 56°02' W 003°13'  
Track history (hours):
 
Tides and Currents Weather Stations Pressure Air Temp Water Temp Dewpoint Dewpoint Depression Visibility Wind Speed Wind Dir Waves Ship Positions

Arklow Spray

Last reported at 2016-May-04 13:33 UTC. Time now 2016-May-04 13:39 UTC.
Position N 50°16' W 001°20'.

Length 90 m; draft 4.7 m.

Type: Cargo ship. MMSI: 309914000.

Date/timePositionNaut miles runAvg speedWind from/ knotsBaromVisibWave heightAir tempDewpointWater temp
2016-May-04 13:33N 50°16' W 001°20'1313.2
2016-May-04 12:33N 50°20' W 001°00'1313.2
2016-May-04 11:33N 50°23' W 000°40'1212.3
2016-May-04 10:33N 50°27' W 000°22'1111.1
2016-May-04 09:32N 50°30' W 000°05'1010.1
2016-May-04 08:34N 50°33' E 000°10'42 9.5
2016-May-04 04:05N 50°54' E 001°08'912.0
2016-May-04 03:20N 51°00' E 001°19'911.9
2016-May-04 02:33N 51°06' E 001°30'1010.2
2016-May-04 01:34N 51°14' E 001°41'9 9.3
2016-May-04 00:33N 51°23' E 001°44'9 8.8
2016-May-03 23:34N 51°31' E 001°46'9 9.2
2016-May-03 22:33N 51°41' E 001°45'10 9.7
2016-May-03 21:33N 51°50' E 001°45'1010.3
2016-May-03 20:34N 52°01' E 001°46'1111.0
2016-May-03 19:33N 52°12' E 001°48'1211.7
2016-May-03 18:33N 52°23' E 001°51'1212.3
2016-May-03 17:34N 52°35' E 001°54'1211.8
2016-May-03 16:34N 52°47' E 001°54'1212.4
2016-May-03 15:34N 52°55' E 001°38'1211.7
2016-May-03 14:33N 53°03' E 001°25'2110.7
2016-May-03 12:33N 53°22' E 001°08'60 9.8
2016-May-03 06:28N 54°13' E 000°14'9 9.7
2016-May-03 05:34N 54°20' E 000°06'10 9.9
2016-May-03 04:33N 54°28' W 000°04'1010.4
2016-May-03 03:34N 54°37' W 000°14'1110.6
2016-May-03 02:33N 54°47' W 000°20'1110.8
2016-May-03 01:33N 54°57' W 000°27'  
2016-Apr-26 06:29N 57°37' W 001°35'8 8.5
2016-Apr-26 05:33N 57°29' W 001°36'53 8.4
2016-Apr-25 23:14N 56°39' W 002°10'6 9.3
2016-Apr-25 22:34N 56°33' W 002°14'9 9.3
2016-Apr-25 21:33N 56°25' W 002°20'9 9.1
2016-Apr-25 20:33N 56°16' W 002°26'9 9.2
2016-Apr-25 19:33N 56°08' W 002°34'1211.6
2016-Apr-25 18:34N 56°05' W 002°54'1111.0
2016-Apr-25 17:34N 56°02' W 003°13'  

Dump ship's entire track history